sensor_id;sensor_type;location;lat;lon;timestamp;pressure;altitude;pressure_sealevel;temperature;humidity
75788;BME280;64406;50.024;14.492;2022-11-03T00:00:04;98813.38;;;5.15;81.21
75788;BME280;64406;50.024;14.492;2022-11-03T00:02:50;98810.34;;;5.12;80.81
75788;BME280;64406;50.024;14.492;2022-11-03T00:05:15;98799.28;;;5.08;81.46
75788;BME280;64406;50.024;14.492;2022-11-03T00:08:09;98801.38;;;5.06;81.07
75788;BME280;64406;50.024;14.492;2022-11-03T00:10:34;98799.19;;;5.03;81.16
75788;BME280;64406;50.024;14.492;2022-11-03T00:12:59;98806.00;;;4.99;81.30
75788;BME280;64406;50.024;14.492;2022-11-03T00:15:25;98795.00;;;5.07;81.02
75788;BME280;64406;50.024;14.492;2022-11-03T00:17:51;98791.16;;;5.03;81.06
75788;BME280;64406;50.024;14.492;2022-11-03T00:20:16;98788.94;;;5.00;81.02
75788;BME280;64406;50.024;14.492;2022-11-03T00:22:42;98787.19;;;4.94;81.37
75788;BME280;64406;50.024;14.492;2022-11-03T00:25:07;98781.94;;;4.87;81.78
75788;BME280;64406;50.024;14.492;2022-11-03T00:27:33;98774.06;;;4.93;81.60
75788;BME280;64406;50.024;14.492;2022-11-03T00:29:59;98765.72;;;4.89;81.45
75788;BME280;64406;50.024;14.492;2022-11-03T00:32:24;98773.50;;;4.90;81.96
75788;BME280;64406;50.024;14.492;2022-11-03T00:34:51;98773.50;;;4.90;82.57
75788;BME280;64406;50.024;14.492;2022-11-03T00:37:16;98776.03;;;4.85;82.87
75788;BME280;64406;50.024;14.492;2022-11-03T00:39:42;98769.72;;;4.80;83.22
75788;BME280;64406;50.024;14.492;2022-11-03T00:42:07;98774.34;;;4.73;82.63
75788;BME280;64406;50.024;14.492;2022-11-03T00:44:33;98770.28;;;4.70;82.91
75788;BME280;64406;50.024;14.492;2022-11-03T00:46:58;98766.59;;;4.71;82.98
75788;BME280;64406;50.024;14.492;2022-11-03T00:49:25;98769.03;;;4.73;82.57
75788;BME280;64406;50.024;14.492;2022-11-03T00:51:51;98770.75;;;4.67;83.50
75788;BME280;64406;50.024;14.492;2022-11-03T00:54:17;98761.78;;;4.61;83.56
75788;BME280;64406;50.024;14.492;2022-11-03T00:56:42;98764.09;;;4.58;83.64
75788;BME280;64406;50.024;14.492;2022-11-03T00:59:09;98752.38;;;4.59;83.12
75788;BME280;64406;50.024;14.492;2022-11-03T01:01:36;98751.47;;;4.65;82.92
75788;BME280;64406;50.024;14.492;2022-11-03T01:04:04;98751.72;;;4.63;83.61
75788;BME280;64406;50.024;14.492;2022-11-03T01:06:50;98748.31;;;4.56;83.50
75788;BME280;64406;50.024;14.492;2022-11-03T01:11:41;98736.13;;;4.60;82.91
75788;BME280;64406;50.024;14.492;2022-11-03T01:14:14;98737.13;;;4.48;83.21
75788;BME280;64406;50.024;14.492;2022-11-03T01:16:40;98732.03;;;4.46;82.78
75788;BME280;64406;50.024;14.492;2022-11-03T01:19:06;98734.72;;;4.46;82.90
75788;BME280;64406;50.024;14.492;2022-11-03T01:21:32;98729.22;;;4.41;83.21
75788;BME280;64406;50.024;14.492;2022-11-03T01:23:59;98724.44;;;4.31;83.75
75788;BME280;64406;50.024;14.492;2022-11-03T01:26:26;98724.00;;;4.34;84.06
75788;BME280;64406;50.024;14.492;2022-11-03T01:28:52;98726.44;;;4.36;84.01
75788;BME280;64406;50.024;14.492;2022-11-03T01:31:20;98727.25;;;4.36;83.59
75788;BME280;64406;50.024;14.492;2022-11-03T01:33:49;98721.22;;;4.41;83.60
75788;BME280;64406;50.024;14.492;2022-11-03T01:36:15;98719.03;;;4.38;83.46
75788;BME280;64406;50.024;14.492;2022-11-03T01:38:41;98714.69;;;4.25;84.06
75788;BME280;64406;50.024;14.492;2022-11-03T01:41:10;98719.44;;;4.23;83.95
75788;BME280;64406;50.024;14.492;2022-11-03T01:43:38;98715.50;;;4.26;83.83
75788;BME280;64406;50.024;14.492;2022-11-03T01:48:35;98702.75;;;4.28;84.41
75788;BME280;64406;50.024;14.492;2022-11-03T01:51:05;98697.06;;;4.24;84.50
75788;BME280;64406;50.024;14.492;2022-11-03T01:53:32;98690.91;;;4.24;84.40
75788;BME280;64406;50.024;14.492;2022-11-03T01:55:58;98690.31;;;4.22;84.31
75788;BME280;64406;50.024;14.492;2022-11-03T01:58:31;98688.53;;;4.16;84.27
75788;BME280;64406;50.024;14.492;2022-11-03T02:00:59;98685.88;;;4.16;84.78
75788;BME280;64406;50.024;14.492;2022-11-03T02:03:28;98688.88;;;4.07;85.06
75788;BME280;64406;50.024;14.492;2022-11-03T02:05:56;98686.56;;;4.11;85.68
75788;BME280;64406;50.024;14.492;2022-11-03T02:08:40;98676.25;;;4.15;86.05
75788;BME280;64406;50.024;14.492;2022-11-03T02:11:08;98678.50;;;4.18;85.89
75788;BME280;64406;50.024;14.492;2022-11-03T02:13:52;98670.81;;;4.09;85.80
75788;BME280;64406;50.024;14.492;2022-11-03T02:16:19;98663.75;;;4.15;86.08
75788;BME280;64406;50.024;14.492;2022-11-03T02:18:46;98670.94;;;4.15;85.90
75788;BME280;64406;50.024;14.492;2022-11-03T02:21:26;98659.44;;;4.14;85.57
75788;BME280;64406;50.024;14.492;2022-11-03T02:26:30;98657.59;;;4.15;85.16
75788;BME280;64406;50.024;14.492;2022-11-03T02:28:56;98649.59;;;4.15;85.85
75788;BME280;64406;50.024;14.492;2022-11-03T02:31:45;98643.84;;;4.18;86.00
75788;BME280;64406;50.024;14.492;2022-11-03T02:34:20;98635.84;;;4.18;85.62
75788;BME280;64406;50.024;14.492;2022-11-03T02:37:11;98635.84;;;4.18;85.77
75788;BME280;64406;50.024;14.492;2022-11-03T02:39:40;98630.13;;;4.14;86.11
75788;BME280;64406;50.024;14.492;2022-11-03T02:42:09;98629.31;;;4.14;86.02
75788;BME280;64406;50.024;14.492;2022-11-03T02:44:37;98631.16;;;4.13;85.58
75788;BME280;64406;50.024;14.492;2022-11-03T02:47:07;98628.16;;;4.09;85.02
75788;BME280;64406;50.024;14.492;2022-11-03T02:49:45;98627.13;;;4.11;85.05
75788;BME280;64406;50.024;14.492;2022-11-03T02:52:44;98634.84;;;4.00;85.26
75788;BME280;64406;50.024;14.492;2022-11-03T02:55:37;98631.00;;;3.96;85.61
75788;BME280;64406;50.024;14.492;2022-11-03T02:58:11;98633.44;;;3.98;85.22
75788;BME280;64406;50.024;14.492;2022-11-03T03:00:44;98630.06;;;3.91;85.17
75788;BME280;64406;50.024;14.492;2022-11-03T03:03:18;98624.72;;;3.91;84.92
75788;BME280;64406;50.024;14.492;2022-11-03T03:05:46;98624.84;;;3.96;85.15
75788;BME280;64406;50.024;14.492;2022-11-03T03:08:13;98620.94;;;3.98;84.89
75788;BME280;64406;50.024;14.492;2022-11-03T03:10:42;98621.16;;;3.97;84.65
75788;BME280;64406;50.024;14.492;2022-11-03T03:13:12;98616.84;;;3.96;85.64
75788;BME280;64406;50.024;14.492;2022-11-03T03:15:50;98615.47;;;3.93;85.21
75788;BME280;64406;50.024;14.492;2022-11-03T03:18:25;98609.97;;;3.88;84.96
75788;BME280;64406;50.024;14.492;2022-11-03T03:20:56;98597.47;;;3.89;85.32
75788;BME280;64406;50.024;14.492;2022-11-03T03:23:26;98595.75;;;3.94;85.63
75788;BME280;64406;50.024;14.492;2022-11-03T03:26:00;98598.78;;;3.98;86.06
75788;BME280;64406;50.024;14.492;2022-11-03T03:28:32;98597.84;;;3.92;85.68
75788;BME280;64406;50.024;14.492;2022-11-03T03:31:04;98597.47;;;3.89;85.19
75788;BME280;64406;50.024;14.492;2022-11-03T03:33:33;98605.94;;;3.86;84.99
75788;BME280;64406;50.024;14.492;2022-11-03T03:36:01;98605.94;;;3.86;85.40
75788;BME280;64406;50.024;14.492;2022-11-03T03:38:35;98604.16;;;3.79;85.16
75788;BME280;64406;50.024;14.492;2022-11-03T03:41:02;98611.19;;;3.74;84.86
75788;BME280;64406;50.024;14.492;2022-11-03T03:43:29;98611.06;;;3.69;85.27
75788;BME280;64406;50.024;14.492;2022-11-03T03:46:00;98605.72;;;3.69;85.21
75788;BME280;64406;50.024;14.492;2022-11-03T03:48:27;98604.91;;;3.68;84.57
75788;BME280;64406;50.024;14.492;2022-11-03T03:50:52;98602.94;;;3.64;84.81
75788;BME280;64406;50.024;14.492;2022-11-03T03:53:18;98600.28;;;3.64;85.22
75788;BME280;64406;50.024;14.492;2022-11-03T03:55:49;98600.28;;;3.64;85.20
75788;BME280;64406;50.024;14.492;2022-11-03T03:58:16;98603.97;;;3.63;84.60
75788;BME280;64406;50.024;14.492;2022-11-03T04:00:42;98609.69;;;3.48;85.07
75788;BME280;64406;50.024;14.492;2022-11-03T04:03:16;98603.38;;;3.42;86.15
75788;BME280;64406;50.024;14.492;2022-11-03T04:05:43;98600.97;;;3.41;86.30
75788;BME280;64406;50.024;14.492;2022-11-03T04:08:09;98598.53;;;3.39;86.61
75788;BME280;64406;50.024;14.492;2022-11-03T04:10:35;98589.19;;;3.48;86.54
75788;BME280;64406;50.024;14.492;2022-11-03T04:13:01;98602.44;;;3.37;86.02
75788;BME280;64406;50.024;14.492;2022-11-03T04:15:45;98602.34;;;3.43;85.82
75788;BME280;64406;50.024;14.492;2022-11-03T04:18:20;98603.19;;;3.44;85.65
75788;BME280;64406;50.024;14.492;2022-11-03T04:21:05;98597.63;;;3.45;84.94
75788;BME280;64406;50.024;14.492;2022-11-03T04:23:50;98598.22;;;3.47;84.78
75788;BME280;64406;50.024;14.492;2022-11-03T04:26:17;98602.50;;;3.48;84.79
75788;BME280;64406;50.024;14.492;2022-11-03T04:28:44;98605.53;;;3.34;85.39
75788;BME280;64406;50.024;14.492;2022-11-03T04:31:15;98598.28;;;3.22;85.78
75788;BME280;64406;50.024;14.492;2022-11-03T04:33:42;98595.69;;;3.16;86.41
75788;BME280;64406;50.024;14.492;2022-11-03T04:36:24;98593.50;;;3.13;85.98
75788;BME280;64406;50.024;14.492;2022-11-03T04:38:50;98581.22;;;3.12;86.18
75788;BME280;64406;50.024;14.492;2022-11-03T04:41:23;98587.06;;;3.02;85.68
75788;BME280;64406;50.024;14.492;2022-11-03T04:43:50;98591.28;;;2.91;86.41
75788;BME280;64406;50.024;14.492;2022-11-03T04:46:23;98590.03;;;2.69;87.20
75788;BME280;64406;50.024;14.492;2022-11-03T04:48:51;98587.75;;;2.72;86.88
75788;BME280;64406;50.024;14.492;2022-11-03T04:51:20;98588.63;;;2.66;87.23
75788;BME280;64406;50.024;14.492;2022-11-03T04:53:53;98584.94;;;2.67;87.40
75788;BME280;64406;50.024;14.492;2022-11-03T04:56:22;98582.06;;;2.69;86.64
75788;BME280;64406;50.024;14.492;2022-11-03T04:58:48;98580.06;;;2.64;86.83
75788;BME280;64406;50.024;14.492;2022-11-03T05:01:16;98578.06;;;2.60;86.96
75788;BME280;64406;50.024;14.492;2022-11-03T05:03:45;98583.97;;;2.62;86.37
75788;BME280;64406;50.024;14.492;2022-11-03T05:06:17;98585.44;;;2.58;86.13
75788;BME280;64406;50.024;14.492;2022-11-03T05:08:49;98570.31;;;2.58;85.51
75788;BME280;64406;50.024;14.492;2022-11-03T05:11:36;98565.41;;;2.55;84.82
75788;BME280;64406;50.024;14.492;2022-11-03T05:14:21;98562.16;;;2.53;85.04
75788;BME280;64406;50.024;14.492;2022-11-03T05:16:50;98562.22;;;2.47;85.43
75788;BME280;64406;50.024;14.492;2022-11-03T05:19:36;98556.47;;;2.50;84.79
75788;BME280;64406;50.024;14.492;2022-11-03T05:22:04;98547.91;;;2.48;84.71
75788;BME280;64406;50.024;14.492;2022-11-03T05:24:36;98552.06;;;2.37;85.51
75788;BME280;64406;50.024;14.492;2022-11-03T05:27:02;98552.50;;;2.34;85.40
75788;BME280;64406;50.024;14.492;2022-11-03T05:29:34;98552.28;;;2.35;84.63
75788;BME280;64406;50.024;14.492;2022-11-03T05:32:00;98546.66;;;2.25;84.62
75788;BME280;64406;50.024;14.492;2022-11-03T05:39:47;98545.97;;;2.11;85.16
75788;BME280;64406;50.024;14.492;2022-11-03T05:42:28;98541.09;;;2.02;84.93
75788;BME280;64406;50.024;14.492;2022-11-03T05:44:54;98542.38;;;1.99;84.41
75788;BME280;64406;50.024;14.492;2022-11-03T05:47:26;98538.09;;;1.98;84.48
75788;BME280;64406;50.024;14.492;2022-11-03T05:50:00;98528.16;;;1.87;84.70
75788;BME280;64406;50.024;14.492;2022-11-03T05:52:31;98530.81;;;1.87;84.99
75788;BME280;64406;50.024;14.492;2022-11-03T05:54:58;98526.94;;;1.83;84.68
75788;BME280;64406;50.024;14.492;2022-11-03T05:57:27;98523.91;;;1.79;84.94
75788;BME280;64406;50.024;14.492;2022-11-03T05:59:53;98521.63;;;1.83;84.71
75788;BME280;64406;50.024;14.492;2022-11-03T06:04:59;98521.41;;;1.84;85.24
75788;BME280;64406;50.024;14.492;2022-11-03T06:07:26;98517.28;;;1.88;84.75
75788;BME280;64406;50.024;14.492;2022-11-03T06:09:54;98514.00;;;1.93;85.22
75788;BME280;64406;50.024;14.492;2022-11-03T06:12:21;98519.31;;;1.93;85.84
75788;BME280;64406;50.024;14.492;2022-11-03T06:14:47;98518.28;;;1.94;85.70
75788;BME280;64406;50.024;14.492;2022-11-03T06:17:26;98516.44;;;1.95;85.71
75788;BME280;64406;50.024;14.492;2022-11-03T06:19:55;98518.22;;;2.01;85.59
75788;BME280;64406;50.024;14.492;2022-11-03T06:22:35;98527.19;;;2.06;85.11
75788;BME280;64406;50.024;14.492;2022-11-03T06:25:17;98521.19;;;2.11;85.21
75788;BME280;64406;50.024;14.492;2022-11-03T06:27:45;98517.91;;;2.15;85.38
75788;BME280;64406;50.024;14.492;2022-11-03T06:30:23;98517.97;;;2.09;85.98
75788;BME280;64406;50.024;14.492;2022-11-03T06:32:49;98518.19;;;2.07;86.16
75788;BME280;64406;50.024;14.492;2022-11-03T06:35:15;98518.78;;;2.09;85.92
75788;BME280;64406;50.024;14.492;2022-11-03T06:37:42;98510.91;;;2.21;85.55
75788;BME280;64406;50.024;14.492;2022-11-03T06:42:33;98525.22;;;2.63;83.97
75788;BME280;64406;50.024;14.492;2022-11-03T06:45:00;98521.25;;;2.54;83.82
75788;BME280;64406;50.024;14.492;2022-11-03T06:47:27;98525.53;;;2.55;83.58
75788;BME280;64406;50.024;14.492;2022-11-03T06:49:58;98523.44;;;2.57;84.28
75788;BME280;64406;50.024;14.492;2022-11-03T06:52:25;98515.34;;;2.52;84.24
75788;BME280;64406;50.024;14.492;2022-11-03T06:55:00;98515.06;;;2.60;84.43
75788;BME280;64406;50.024;14.492;2022-11-03T06:57:28;98514.38;;;2.83;84.13
75788;BME280;64406;50.024;14.492;2022-11-03T06:59:58;98520.81;;;2.94;83.97
75788;BME280;64406;50.024;14.492;2022-11-03T07:02:52;98525.56;;;2.92;83.82
75788;BME280;64406;50.024;14.492;2022-11-03T07:05:22;98507.00;;;3.04;84.10
75788;BME280;64406;50.024;14.492;2022-11-03T07:07:51;98509.56;;;3.10;83.80
75788;BME280;64406;50.024;14.492;2022-11-03T07:10:18;98508.59;;;3.23;83.25
75788;BME280;64406;50.024;14.492;2022-11-03T07:12:44;98506.75;;;3.23;83.21
75788;BME280;64406;50.024;14.492;2022-11-03T07:15:22;98516.16;;;3.26;83.34
75788;BME280;64406;50.024;14.492;2022-11-03T07:17:49;98506.81;;;3.35;83.97
75788;BME280;64406;50.024;14.492;2022-11-03T07:20:15;98504.19;;;3.47;83.87
75788;BME280;64406;50.024;14.492;2022-11-03T07:22:42;98504.00;;;3.60;83.04
75788;BME280;64406;50.024;14.492;2022-11-03T07:25:15;98506.72;;;3.72;83.00
75788;BME280;64406;50.024;14.492;2022-11-03T07:27:42;98497.69;;;3.73;82.64
75788;BME280;64406;50.024;14.492;2022-11-03T07:30:21;98500.91;;;3.75;82.97
75788;BME280;64406;50.024;14.492;2022-11-03T07:32:50;98492.72;;;3.76;82.26
75788;BME280;64406;50.024;14.492;2022-11-03T07:37:45;98478.81;;;3.74;82.70
75788;BME280;64406;50.024;14.492;2022-11-03T07:40:15;98470.47;;;3.71;82.65
75788;BME280;64406;50.024;14.492;2022-11-03T07:42:42;98470.94;;;3.79;82.81
75788;BME280;64406;50.024;14.492;2022-11-03T07:47:56;98465.16;;;3.94;81.83
75788;BME280;64406;50.024;14.492;2022-11-03T07:50:22;98460.66;;;3.95;82.41
75788;BME280;64406;50.024;14.492;2022-11-03T07:52:47;98461.13;;;4.03;81.95
75788;BME280;64406;50.024;14.492;2022-11-03T07:55:13;98449.88;;;4.13;81.75
75788;BME280;64406;50.024;14.492;2022-11-03T07:57:39;98448.16;;;4.19;81.48
75788;BME280;64406;50.024;14.492;2022-11-03T08:00:06;98443.75;;;4.36;81.04
75788;BME280;64406;50.024;14.492;2022-11-03T08:05:07;98440.50;;;4.34;81.04
75788;BME280;64406;50.024;14.492;2022-11-03T08:07:33;98427.84;;;4.41;81.34
75788;BME280;64406;50.024;14.492;2022-11-03T08:09:59;98422.06;;;4.56;81.21
75788;BME280;64406;50.024;14.492;2022-11-03T08:12:24;98417.16;;;4.64;80.92
75788;BME280;64406;50.024;14.492;2022-11-03T08:14:50;98415.03;;;4.78;80.87
75788;BME280;64406;50.024;14.492;2022-11-03T08:17:15;98411.19;;;4.86;80.78
75788;BME280;64406;50.024;14.492;2022-11-03T08:19:41;98406.47;;;5.05;80.20
75788;BME280;64406;50.024;14.492;2022-11-03T08:22:07;98402.34;;;5.14;80.05
75788;BME280;64406;50.024;14.492;2022-11-03T08:24:35;98393.59;;;5.30;80.14
75788;BME280;64406;50.024;14.492;2022-11-03T08:27:00;98399.59;;;5.54;79.56
75788;BME280;64406;50.024;14.492;2022-11-03T08:29:27;98392.97;;;5.73;78.94
75788;BME280;64406;50.024;14.492;2022-11-03T08:31:53;98389.41;;;5.85;78.53
75788;BME280;64406;50.024;14.492;2022-11-03T08:34:19;98374.19;;;6.02;78.41
75788;BME280;64406;50.024;14.492;2022-11-03T08:36:45;98374.84;;;6.09;77.64
75788;BME280;64406;50.024;14.492;2022-11-03T08:39:11;98375.72;;;6.15;77.99
75788;BME280;64406;50.024;14.492;2022-11-03T08:41:36;98370.03;;;6.28;77.09
75788;BME280;64406;50.024;14.492;2022-11-03T08:44:05;98371.19;;;6.37;77.49
75788;BME280;64406;50.024;14.492;2022-11-03T08:46:31;98363.81;;;6.44;76.90
75788;BME280;64406;50.024;14.492;2022-11-03T08:48:57;98354.03;;;6.55;76.46
75788;BME280;64406;50.024;14.492;2022-11-03T08:51:23;98362.28;;;6.53;76.71
75788;BME280;64406;50.024;14.492;2022-11-03T08:53:48;98352.25;;;6.61;76.50
75788;BME280;64406;50.024;14.492;2022-11-03T08:56:18;98349.78;;;6.59;76.50
75788;BME280;64406;50.024;14.492;2022-11-03T08:58:45;98344.25;;;6.66;76.56
75788;BME280;64406;50.024;14.492;2022-11-03T09:01:11;98340.84;;;6.70;76.91
75788;BME280;64406;50.024;14.492;2022-11-03T09:03:38;98333.97;;;6.79;75.63
75788;BME280;64406;50.024;14.492;2022-11-03T09:06:03;98329.22;;;6.87;76.41
75788;BME280;64406;50.024;14.492;2022-11-03T09:08:29;98326.97;;;7.00;75.28
75788;BME280;64406;50.024;14.492;2022-11-03T09:10:54;98317.94;;;7.06;74.91
75788;BME280;64406;50.024;14.492;2022-11-03T09:13:20;98313.47;;;7.17;74.76
75788;BME280;64406;50.024;14.492;2022-11-03T09:15:45;98314.56;;;7.21;75.17
75788;BME280;64406;50.024;14.492;2022-11-03T09:18:11;98307.19;;;7.33;74.90
75788;BME280;64406;50.024;14.492;2022-11-03T09:20:36;98308.06;;;7.44;74.97
75788;BME280;64406;50.024;14.492;2022-11-03T09:23:02;98304.69;;;7.59;73.58
75788;BME280;64406;50.024;14.492;2022-11-03T09:25:27;98300.47;;;7.68;73.41
75788;BME280;64406;50.024;14.492;2022-11-03T09:27:53;98295.72;;;7.80;74.03
75788;BME280;64406;50.024;14.492;2022-11-03T09:30:18;98293.06;;;7.85;72.98
75788;BME280;64406;50.024;14.492;2022-11-03T09:32:45;98285.88;;;7.96;72.85
75788;BME280;64406;50.024;14.492;2022-11-03T09:35:11;98291.25;;;7.96;73.08
75788;BME280;64406;50.024;14.492;2022-11-03T09:37:39;98281.34;;;8.02;73.22
75788;BME280;64406;50.024;14.492;2022-11-03T09:40:06;98272.78;;;8.05;73.36
75788;BME280;64406;50.024;14.492;2022-11-03T09:42:32;98266.94;;;8.18;72.79
75788;BME280;64406;50.024;14.492;2022-11-03T09:44:59;98266.19;;;8.28;72.66
75788;BME280;64406;50.024;14.492;2022-11-03T09:47:38;98257.38;;;8.37;72.85
75788;BME280;64406;50.024;14.492;2022-11-03T09:50:04;98243.44;;;8.40;72.82
75788;BME280;64406;50.024;14.492;2022-11-03T09:52:32;98239.44;;;8.48;71.92
75788;BME280;64406;50.024;14.492;2022-11-03T09:54:59;98238.91;;;8.51;72.44
75788;BME280;64406;50.024;14.492;2022-11-03T09:57:26;98239.72;;;8.57;71.76
75788;BME280;64406;50.024;14.492;2022-11-03T09:59:52;98233.84;;;8.75;71.32
75788;BME280;64406;50.024;14.492;2022-11-03T10:02:27;98229.03;;;8.82;71.37
75788;BME280;64406;50.024;14.492;2022-11-03T10:04:56;98230.13;;;8.86;70.58
75788;BME280;64406;50.024;14.492;2022-11-03T10:07:25;98219.66;;;8.95;69.44
75788;BME280;64406;50.024;14.492;2022-11-03T10:09:52;98226.38;;;9.08;70.67
75788;BME280;64406;50.024;14.492;2022-11-03T10:12:20;98210.78;;;9.15;69.76
75788;BME280;64406;50.024;14.492;2022-11-03T10:14:46;98199.75;;;9.26;69.12
75788;BME280;64406;50.024;14.492;2022-11-03T10:17:16;98198.91;;;9.36;68.43
75788;BME280;64406;50.024;14.492;2022-11-03T10:19:47;98182.28;;;9.39;68.37
75788;BME280;64406;50.024;14.492;2022-11-03T10:22:14;98175.00;;;9.40;68.74
75788;BME280;64406;50.024;14.492;2022-11-03T10:24:40;98170.66;;;9.49;69.10
75788;BME280;64406;50.024;14.492;2022-11-03T10:27:19;98154.81;;;9.52;67.94
75788;BME280;64406;50.024;14.492;2022-11-03T10:29:45;98150.47;;;9.67;67.62
75788;BME280;64406;50.024;14.492;2022-11-03T10:32:29;98149.66;;;9.66;67.69
75788;BME280;64406;50.024;14.492;2022-11-03T10:34:54;98148.31;;;9.64;68.10
75788;BME280;64406;50.024;14.492;2022-11-03T10:37:24;98137.31;;;9.60;68.29
75788;BME280;64406;50.024;14.492;2022-11-03T10:39:52;98131.66;;;9.62;67.78
75788;BME280;64406;50.024;14.492;2022-11-03T10:42:20;98126.25;;;9.67;67.94
75788;BME280;64406;50.024;14.492;2022-11-03T10:44:48;98119.25;;;9.71;67.79
75788;BME280;64406;50.024;14.492;2022-11-03T10:47:32;98125.16;;;9.78;67.58
75788;BME280;64406;50.024;14.492;2022-11-03T10:52:42;98103.31;;;9.85;68.22
75788;BME280;64406;50.024;14.492;2022-11-03T10:55:09;98099.25;;;9.87;67.76
75788;BME280;64406;50.024;14.492;2022-11-03T10:57:35;98091.47;;;9.91;68.34
75788;BME280;64406;50.024;14.492;2022-11-03T11:00:02;98073.19;;;9.82;68.70
75788;BME280;64406;50.024;14.492;2022-11-03T11:02:30;98073.63;;;10.00;68.14
75788;BME280;64406;50.024;14.492;2022-11-03T11:07:34;98073.03;;;10.08;68.11
75788;BME280;64406;50.024;14.492;2022-11-03T11:10:14;98061.66;;;10.16;68.58
75788;BME280;64406;50.024;14.492;2022-11-03T11:13:12;98054.38;;;10.27;67.70
75788;BME280;64406;50.024;14.492;2022-11-03T11:20:52;98036.97;;;10.48;67.39
75788;BME280;64406;50.024;14.492;2022-11-03T11:31:46;98002.97;;;10.81;67.13
75788;BME280;64406;50.024;14.492;2022-11-03T11:42:06;98000.00;;;11.31;66.32
75788;BME280;64406;50.024;14.492;2022-11-03T11:52:43;97982.91;;;11.78;64.56
75788;BME280;64406;50.024;14.492;2022-11-03T11:55:43;97949.13;;;11.62;64.69
75788;BME280;64406;50.024;14.492;2022-11-03T11:58:37;97968.63;;;11.78;65.47
75788;BME280;64406;50.024;14.492;2022-11-03T12:01:29;97954.78;;;11.84;64.98
75788;BME280;64406;50.024;14.492;2022-11-03T12:03:58;97950.19;;;11.85;64.57
75788;BME280;64406;50.024;14.492;2022-11-03T12:06:35;97943.50;;;11.82;65.13
75788;BME280;64406;50.024;14.492;2022-11-03T12:09:14;97945.19;;;11.73;64.91
75788;BME280;64406;50.024;14.492;2022-11-03T12:11:49;97925.59;;;11.67;65.08
75788;BME280;64406;50.024;14.492;2022-11-03T12:16:53;97928.94;;;11.78;66.09
75788;BME280;64406;50.024;14.492;2022-11-03T12:19:42;97908.91;;;11.84;65.76
75788;BME280;64406;50.024;14.492;2022-11-03T12:22:09;97898.72;;;11.95;65.44
75788;BME280;64406;50.024;14.492;2022-11-03T12:24:52;97908.84;;;11.89;65.27
75788;BME280;64406;50.024;14.492;2022-11-03T12:27:38;97904.72;;;11.92;65.30
75788;BME280;64406;50.024;14.492;2022-11-03T12:30:14;97901.44;;;11.95;65.12
75788;BME280;64406;50.024;14.492;2022-11-03T12:32:40;97895.16;;;12.00;65.64
75788;BME280;64406;50.024;14.492;2022-11-03T12:35:08;97886.88;;;12.10;65.14
75788;BME280;64406;50.024;14.492;2022-11-03T12:37:34;97884.91;;;12.15;64.52
75788;BME280;64406;50.024;14.492;2022-11-03T12:39:59;97860.47;;;12.07;64.85
75788;BME280;64406;50.024;14.492;2022-11-03T12:42:25;97858.16;;;12.00;64.03
75788;BME280;64406;50.024;14.492;2022-11-03T12:44:51;97864.34;;;12.01;64.89
75788;BME280;64406;50.024;14.492;2022-11-03T12:47:17;97861.44;;;11.83;64.93
75788;BME280;64406;50.024;14.492;2022-11-03T12:49:43;97860.75;;;11.91;65.06
75788;BME280;64406;50.024;14.492;2022-11-03T12:52:09;97856.56;;;11.99;64.41
75788;BME280;64406;50.024;14.492;2022-11-03T12:54:35;97863.97;;;12.07;64.61
75788;BME280;64406;50.024;14.492;2022-11-03T12:57:01;97862.06;;;12.08;64.42
75788;BME280;64406;50.024;14.492;2022-11-03T12:59:27;97855.59;;;12.09;64.92
75788;BME280;64406;50.024;14.492;2022-11-03T13:01:52;97853.88;;;12.13;64.99
75788;BME280;64406;50.024;14.492;2022-11-03T13:04:20;97854.03;;;12.21;64.66
75788;BME280;64406;50.024;14.492;2022-11-03T13:06:45;97851.91;;;12.32;64.19
75788;BME280;64406;50.024;14.492;2022-11-03T13:09:11;97852.72;;;12.33;64.08
75788;BME280;64406;50.024;14.492;2022-11-03T13:11:37;97849.50;;;12.31;63.63
75788;BME280;64406;50.024;14.492;2022-11-03T13:14:21;97845.72;;;12.32;63.68
75788;BME280;64406;50.024;14.492;2022-11-03T13:16:47;97845.53;;;12.28;64.28
75788;BME280;64406;50.024;14.492;2022-11-03T13:19:13;97843.81;;;12.32;63.49
75788;BME280;64406;50.024;14.492;2022-11-03T13:21:38;97833.22;;;12.36;64.22
75788;BME280;64406;50.024;14.492;2022-11-03T13:24:04;97839.03;;;12.29;64.18
75788;BME280;64406;50.024;14.492;2022-11-03T13:26:30;97841.19;;;12.41;63.39
75788;BME280;64406;50.024;14.492;2022-11-03T13:28:55;97826.91;;;12.40;63.20
75788;BME280;64406;50.024;14.492;2022-11-03T13:31:21;97832.03;;;12.42;63.78
75788;BME280;64406;50.024;14.492;2022-11-03T13:33:47;97824.41;;;12.44;64.01
75788;BME280;64406;50.024;14.492;2022-11-03T13:36:12;97817.50;;;12.51;63.15
75788;BME280;64406;50.024;14.492;2022-11-03T13:38:38;97818.09;;;12.62;64.43
75788;BME280;64406;50.024;14.492;2022-11-03T13:41:04;97816.06;;;12.95;62.84
75788;BME280;64406;50.024;14.492;2022-11-03T13:43:30;97806.22;;;12.99;62.62
75788;BME280;64406;50.024;14.492;2022-11-03T13:45:55;97808.06;;;13.13;61.76
75788;BME280;64406;50.024;14.492;2022-11-03T13:48:27;97808.44;;;13.33;61.68
75788;BME280;64406;50.024;14.492;2022-11-03T13:50:53;97810.28;;;13.69;60.38
75788;BME280;64406;50.024;14.492;2022-11-03T13:53:20;97804.72;;;13.97;59.43
75788;BME280;64406;50.024;14.492;2022-11-03T13:55:46;97799.91;;;14.25;59.23
75788;BME280;64406;50.024;14.492;2022-11-03T13:58:11;97795.13;;;14.61;58.20
75788;BME280;64406;50.024;14.492;2022-11-03T14:00:36;97795.78;;;14.84;56.88
75788;BME280;64406;50.024;14.492;2022-11-03T14:03:02;97796.28;;;15.04;55.98
75788;BME280;64406;50.024;14.492;2022-11-03T14:05:28;97790.53;;;15.31;55.88
75788;BME280;64406;50.024;14.492;2022-11-03T14:07:54;97794.22;;;15.53;55.39
75788;BME280;64406;50.024;14.492;2022-11-03T14:10:20;97785.44;;;15.73;54.62
75788;BME280;64406;50.024;14.492;2022-11-03T14:12:46;97783.84;;;15.63;54.85